Terminal Aerodrome Forecast
Issued by NWS

Home | Current Version | Previous Version | Text Only | Print | Product List | Glossary On
Versions: 1 2 3 4 5 6 7 8 9 10 11 12 13
000
FTUS46 KLOX 300500 RRA
TAFOXR
TAF
KOXR 300548Z 3006/3106 VRB03KT P6SM BKN120
     FM300900 06007KT P6SM OVC120
     FM302000 25007KT P6SM BKN150
     FM310300 VRB03KT P6SM SCT100=

USA.gov is the U.S. government's official web portal to all federal, state and local government web resources and services.